Time;durP1;ratioP1;P1;durP2;ratioP2;P2;SDS_P1;SDS_P2;PMS_P1;PMS_P2;Temp;Humidity;BMP_temperature;BMP_pressure;BME280_temperature;BME280_humidity;BME280_pressure;Samples;Min_cycle;Max_cycle;Signal;HPM_P1;HPM_P2
2022/01/06 00:01:33;;;;;;;34.07;14.33;;;;;;;;;;5077329;28;20214;-63
2022/01/06 00:04:01;;;;;;;25.23;11.97;;;;;;;;;;5077405;28;20211;-63
2022/01/06 00:06:30;;;;;;;22.33;11.77;;;;;;;;;;5077039;28;20570;-64
2022/01/06 00:08:59;;;;;;;41.47;14.97;;;;;;;;;;5076866;28;20211;-63
2022/01/06 00:11:26;;;;;;;32.33;11.93;;;;;;;;;;5077187;28;20212;-63
2022/01/06 00:14:00;;;;;;;27.87;12.07;;;;;;;;;;5076921;28;20222;-63
2022/01/06 00:24:19;;;;;;;37.03;16.20;;;;;;;;;;5077015;28;20195;-63
2022/01/06 00:26:50;;;;;;;51.83;17.57;;;;;;;;;;5076851;28;20243;-63
2022/01/06 00:29:18;;;;;;;20.07;10.93;;;;;;;;;;5058751;28;20240;-63
2022/01/06 00:31:46;;;;;;;23.37;11.70;;;;;;;;;;5076748;28;20261;-63
2022/01/06 00:34:14;;;;;;;22.40;12.23;;;;;;;;;;5076691;28;20210;-63
2022/01/06 00:36:42;;;;;;;23.83;11.63;;;;;;;;;;5059104;28;20239;-63
2022/01/06 00:39:11;;;;;;;20.77;10.90;;;;;;;;;;5059121;28;20238;-63
2022/01/06 00:41:38;;;;;;;23.83;12.70;;;;;;;;;;5076476;28;20235;-63
2022/01/06 00:44:06;;;;;;;40.33;15.40;;;;;;;;;;5076579;28;20747;-63
2022/01/06 00:46:34;;;;;;;38.83;15.43;;;;;;;;;;5076581;28;20318;-63
2022/01/06 00:49:01;;;;;;;33.97;14.00;;;;;;;;;;5076429;28;20689;-63
2022/01/06 00:51:29;;;;;;;42.40;17.03;;;;;;;;;;5076083;28;20558;-64
2022/01/06 00:53:56;;;;;;;38.67;14.53;;;;;;;;;;5076305;28;20247;-63
2022/01/06 00:56:23;;;;;;;28.93;12.43;;;;;;;;;;5076205;28;20208;-63
2022/01/06 00:58:50;;;;;;;29.93;12.37;;;;;;;;;;5076454;28;20270;-63
2022/01/06 01:01:18;;;;;;;53.60;26.83;;;;;;;;;;5076259;28;20208;-63
2022/01/06 01:03:46;;;;;;;20.73;10.33;;;;;;;;;;5057547;28;20685;-63
2022/01/06 01:06:13;;;;;;;25.33;10.40;;;;;;;;;;5058170;28;20623;-63
2022/01/06 01:08:40;;;;;;;18.17;8.90;;;;;;;;;;5076032;28;20559;-63
2022/01/06 01:11:08;;;;;;;20.53;8.73;;;;;;;;;;5075710;28;20212;-64
2022/01/06 01:13:54;;;;;;;23.73;8.43;;;;;;;;;;5058174;28;20223;-63
2022/01/06 01:16:30;;;;;;;27.87;10.43;;;;;;;;;;5075770;28;20195;-63
2022/01/06 01:19:01;;;;;;;24.33;8.13;;;;;;;;;;5057914;28;20668;-64
2022/01/06 01:21:29;;;;;;;95.77;66.30;;;;;;;;;;5075412;28;20196;-64
2022/01/06 01:23:59;;;;;;;24.43;9.80;;;;;;;;;;5075542;28;20211;-64
2022/01/06 01:26:27;;;;;;;30.60;11.27;;;;;;;;;;5075253;28;20239;-63
2022/01/06 01:28:54;;;;;;;25.40;9.93;;;;;;;;;;5075044;28;20666;-63
2022/01/06 01:33:52;;;;;;;69.20;17.07;;;;;;;;;;5075467;28;20218;-63
2022/01/06 01:36:20;;;;;;;38.70;9.73;;;;;;;;;;5075424;28;20203;-63
2022/01/06 01:38:47;;;;;;;26.43;7.80;;;;;;;;;;5075456;28;20214;-64
2022/01/06 01:41:15;;;;;;;24.70;8.47;;;;;;;;;;5075338;28;20564;-63
2022/01/06 01:43:46;;;;;;;28.27;10.77;;;;;;;;;;5075408;28;20268;-64
2022/01/06 01:46:16;;;;;;;18.30;7.80;;;;;;;;;;5075537;28;20237;-64
2022/01/06 01:49:09;;;;;;;13.37;6.53;;;;;;;;;;5075712;28;20203;-63
2022/01/06 01:51:35;;;;;;;33.87;10.20;;;;;;;;;;5075315;28;20676;-63
2022/01/06 01:54:03;;;;;;;28.60;8.10;;;;;;;;;;5074907;28;20602;-63
2022/01/06 01:56:31;;;;;;;17.70;7.00;;;;;;;;;;5057565;28;20220;-63
2022/01/06 01:58:58;;;;;;;18.33;7.30;;;;;;;;;;5057400;28;20681;-63
2022/01/06 02:01:25;;;;;;;16.30;6.67;;;;;;;;;;5074892;28;20214;-63
2022/01/06 02:03:53;;;;;;;20.07;7.83;;;;;;;;;;5075199;28;20212;-63
2022/01/06 02:06:20;;;;;;;21.93;8.40;;;;;;;;;;5074602;28;20728;-63
2022/01/06 02:08:48;;;;;;;16.73;6.77;;;;;;;;;;5074976;28;20674;-63
2022/01/06 02:11:15;;;;;;;32.10;10.43;;;;;;;;;;5074619;28;20211;-64
2022/01/06 02:13:50;;;;;;;34.30;10.57;;;;;;;;;;5074773;28;20207;-63
2022/01/06 02:16:24;;;;;;;15.67;6.63;;;;;;;;;;5074061;28;20199;-63
2022/01/06 02:18:53;;;;;;;27.27;9.23;;;;;;;;;;5074736;28;20192;-63
2022/01/06 02:21:21;;;;;;;25.60;8.73;;;;;;;;;;5074998;28;20208;-63
2022/01/06 02:23:49;;;;;;;99.17;32.83;;;;;;;;;;5075065;28;20209;-63
2022/01/06 02:26:16;;;;;;;28.17;10.93;;;;;;;;;;5074971;28;20270;-63
2022/01/06 02:28:44;;;;;;;29.50;9.73;;;;;;;;;;5074920;28;20207;-63
2022/01/06 02:31:11;;;;;;;23.60;8.27;;;;;;;;;;5074717;28;20657;-64
2022/01/06 02:33:39;;;;;;;22.93;9.73;;;;;;;;;;5075091;28;20653;-64
2022/01/06 02:36:06;;;;;;;17.57;7.47;;;;;;;;;;5056975;28;20218;-63
2022/01/06 02:38:34;;;;;;;17.67;7.20;;;;;;;;;;5074636;28;20217;-63
2022/01/06 02:41:02;;;;;;;25.73;8.40;;;;;;;;;;5074568;28;20211;-63
2022/01/06 02:43:31;;;;;;;24.73;8.53;;;;;;;;;;5074699;28;20211;-63
2022/01/06 02:45:58;;;;;;;35.53;14.00;;;;;;;;;;5074442;28;20234;-63
2022/01/06 02:48:26;;;;;;;21.17;9.30;;;;;;;;;;5074704;28;20211;-63
2022/01/06 02:50:53;;;;;;;17.07;8.27;;;;;;;;;;5074669;28;20211;-63
2022/01/06 02:53:21;;;;;;;18.43;7.83;;;;;;;;;;5074294;28;20595;-63
2022/01/06 02:55:53;;;;;;;27.13;8.67;;;;;;;;;;5074529;28;20767;-63
2022/01/06 02:58:40;;;;;;;18.43;8.37;;;;;;;;;;5074735;28;20226;-63
2022/01/06 03:01:07;;;;;;;19.90;8.07;;;;;;;;;;5074396;28;20207;-63
2022/01/06 03:03:35;;;;;;;26.73;9.63;;;;;;;;;;5056853;28;20208;-63
2022/01/06 03:06:03;;;;;;;45.43;18.20;;;;;;;;;;5074370;28;20245;-63
2022/01/06 03:08:30;;;;;;;18.43;8.70;;;;;;;;;;5074408;28;20207;-63
2022/01/06 03:10:57;;;;;;;19.97;7.77;;;;;;;;;;5074125;28;20678;-63
2022/01/06 03:13:25;;;;;;;27.03;9.67;;;;;;;;;;5074047;28;20215;-63
2022/01/06 03:15:52;;;;;;;26.73;9.60;;;;;;;;;;5074264;28;20203;-63
2022/01/06 03:18:19;;;;;;;27.20;9.10;;;;;;;;;;5074385;28;20219;-63
2022/01/06 03:20:47;;;;;;;23.27;9.30;;;;;;;;;;5074271;28;20298;-63
2022/01/06 03:23:14;;;;;;;19.50;7.90;;;;;;;;;;5074246;28;20286;-63
2022/01/06 03:25:41;;;;;;;27.33;9.83;;;;;;;;;;5074323;28;20227;-63
2022/01/06 03:28:09;;;;;;;21.13;8.77;;;;;;;;;;5073881;28;20218;-63
2022/01/06 03:30:36;;;;;;;39.07;10.90;;;;;;;;;;5056011;28;20723;-63
2022/01/06 03:33:04;;;;;;;30.17;10.50;;;;;;;;;;5056454;28;20211;-63
2022/01/06 03:35:31;;;;;;;37.10;12.07;;;;;;;;;;5074179;28;20203;-63
2022/01/06 03:37:59;;;;;;;40.03;12.70;;;;;;;;;;5074126;28;20207;-63
2022/01/06 03:40:26;;;;;;;21.87;8.70;;;;;;;;;;5074092;28;20238;-63
2022/01/06 03:42:53;;;;;;;13.40;7.30;;;;;;;;;;5074218;28;20564;-63
2022/01/06 03:45:20;;;;;;;19.53;7.87;;;;;;;;;;5073737;28;20687;-63
2022/01/06 03:47:48;;;;;;;39.77;14.73;;;;;;;;;;5073876;28;20815;-63
2022/01/06 03:50:16;;;;;;;21.90;8.53;;;;;;;;;;5074053;28;20253;-63
2022/01/06 03:52:44;;;;;;;20.57;9.13;;;;;;;;;;5073982;28;20234;-63
2022/01/06 03:55:14;;;;;;;18.90;8.57;;;;;;;;;;5073572;28;20318;-63
2022/01/06 03:57:42;;;;;;;22.27;9.17;;;;;;;;;;5073748;28;20626;-63
2022/01/06 04:00:12;;;;;;;26.53;9.63;;;;;;;;;;5073916;28;20208;-63
2022/01/06 04:02:40;;;;;;;36.70;12.63;;;;;;;;;;5073366;28;20693;-63
2022/01/06 04:05:08;;;;;;;42.03;12.90;;;;;;;;;;5073356;28;20211;-63
2022/01/06 04:07:36;;;;;;;108.73;63.60;;;;;;;;;;5055599;28;20239;-64
2022/01/06 04:10:05;;;;;;;30.53;11.70;;;;;;;;;;5073062;28;20746;-63
2022/01/06 04:12:36;;;;;;;23.27;9.53;;;;;;;;;;5073064;28;20689;-63
2022/01/06 04:15:08;;;;;;;17.60;8.17;;;;;;;;;;5073467;28;20196;-63
2022/01/06 04:17:36;;;;;;;17.63;8.37;;;;;;;;;;5073550;28;20206;-64
2022/01/06 04:20:06;;;;;;;25.57;9.90;;;;;;;;;;5073500;28;20247;-63
2022/01/06 04:22:34;;;;;;;32.10;11.23;;;;;;;;;;5072991;28;20713;-64
2022/01/06 04:25:03;;;;;;;33.10;10.80;;;;;;;;;;5073035;28;20605;-63
2022/01/06 04:27:30;;;;;;;21.77;8.50;;;;;;;;;;5073243;28;20262;-63
2022/01/06 04:29:57;;;;;;;33.47;12.90;;;;;;;;;;5072951;28;20538;-63
2022/01/06 04:32:24;;;;;;;19.07;8.33;;;;;;;;;;5073186;28;20203;-63
2022/01/06 04:34:52;;;;;;;19.23;8.60;;;;;;;;;;5072933;28;20669;-63
2022/01/06 04:37:19;;;;;;;21.97;8.90;;;;;;;;;;5055160;28;20737;-63
2022/01/06 04:39:47;;;;;;;33.23;10.80;;;;;;;;;;5075634;28;20215;-63
2022/01/06 04:42:14;;;;;;;21.63;9.50;;;;;;;;;;5076771;28;20207;-63
2022/01/06 04:44:41;;;;;;;100.77;24.17;;;;;;;;;;5059027;28;20235;-63
2022/01/06 04:47:08;;;;;;;28.67;10.50;;;;;;;;;;5076518;28;20291;-64
2022/01/06 04:49:36;;;;;;;24.33;13.37;;;;;;;;;;5076598;28;20212;-63
2022/01/06 04:52:03;;;;;;;21.30;9.97;;;;;;;;;;5076511;28;20210;-63
2022/01/06 04:54:31;;;;;;;37.07;11.60;;;;;;;;;;5076179;28;20764;-64
2022/01/06 04:56:58;;;;;;;23.10;9.20;;;;;;;;;;5076111;28;20219;-63
2022/01/06 04:59:26;;;;;;;31.60;12.13;;;;;;;;;;5076338;28;20239;-64
2022/01/06 05:01:54;;;;;;;25.20;9.90;;;;;;;;;;5076176;28;20206;-63
2022/01/06 05:04:22;;;;;;;32.23;11.33;;;;;;;;;;5076223;28;20214;-63
2022/01/06 05:06:51;;;;;;;20.43;9.47;;;;;;;;;;5076190;28;20318;-63
2022/01/06 05:09:18;;;;;;;538.87;227.50;;;;;;;;;;5076248;28;20234;-64
2022/01/06 05:11:45;;;;;;;20.20;10.23;;;;;;;;;;5076274;28;20207;-63
2022/01/06 05:14:12;;;;;;;20.93;9.53;;;;;;;;;;5075716;28;20215;-63
2022/01/06 05:16:40;;;;;;;22.10;9.50;;;;;;;;;;5075882;28;20211;-64
2022/01/06 05:19:07;;;;;;;17.20;8.40;;;;;;;;;;5075581;28;20309;-63
2022/01/06 05:21:34;;;;;;;17.97;8.67;;;;;;;;;;5075851;28;20265;-63
2022/01/06 05:24:10;;;;;;;18.67;8.30;;;;;;;;;;5075737;28;20238;-63
2022/01/06 05:26:38;;;;;;;25.83;10.20;;;;;;;;;;5075801;28;20241;-63
2022/01/06 05:29:09;;;;;;;21.13;9.00;;;;;;;;;;5075868;28;20215;-63
2022/01/06 05:31:37;;;;;;;48.77;26.60;;;;;;;;;;5075797;28;20286;-63
2022/01/06 05:34:05;;;;;;;21.17;9.43;;;;;;;;;;5075673;28;20210;-64
2022/01/06 05:36:37;;;;;;;25.03;10.57;;;;;;;;;;5075625;28;20261;-63
2022/01/06 05:39:05;;;;;;;15.90;7.50;;;;;;;;;;5075218;28;20207;-63
2022/01/06 05:41:32;;;;;;;22.03;8.07;;;;;;;;;;5075596;28;20211;-63
2022/01/06 05:44:00;;;;;;;31.93;10.07;;;;;;;;;;5075390;28;20218;-63
2022/01/06 05:46:27;;;;;;;18.57;8.37;;;;;;;;;;5075106;28;20274;-63
2022/01/06 05:48:55;;;;;;;47.60;12.97;;;;;;;;;;5075240;28;20670;-63
2022/01/06 05:51:22;;;;;;;37.77;19.67;;;;;;;;;;5074266;28;20207;-63
2022/01/06 05:53:50;;;;;;;15.70;7.83;;;;;;;;;;5068070;28;20269;-63
2022/01/06 05:56:18;;;;;;;17.47;8.13;;;;;;;;;;5065035;28;20659;-63
2022/01/06 05:58:45;;;;;;;16.77;7.53;;;;;;;;;;5063754;28;20211;-63
2022/01/06 06:01:12;;;;;;;29.70;10.53;;;;;;;;;;5064855;28;20219;-64
2022/01/06 06:03:40;;;;;;;59.57;16.33;;;;;;;;;;5068950;28;20256;-64
2022/01/06 06:06:08;;;;;;;18.30;8.30;;;;;;;;;;5064400;28;20219;-63
2022/01/06 06:08:35;;;;;;;15.20;7.30;;;;;;;;;;5064247;28;20238;-63
2022/01/06 06:11:02;;;;;;;18.20;6.97;;;;;;;;;;5063439;28;20613;-63
2022/01/06 06:13:30;;;;;;;21.40;8.97;;;;;;;;;;5062043;28;20597;-63
2022/01/06 06:15:57;;;;;;;19.03;7.20;;;;;;;;;;5068220;28;20246;-63
2022/01/06 06:18:25;;;;;;;17.83;8.73;;;;;;;;;;5064078;28;20215;-63
2022/01/06 06:20:53;;;;;;;18.17;7.40;;;;;;;;;;5062009;28;20234;-63
2022/01/06 06:23:23;;;;;;;14.70;6.43;;;;;;;;;;5062093;28;20585;-63
2022/01/06 06:25:50;;;;;;;28.50;9.43;;;;;;;;;;5068465;28;20215;-63
2022/01/06 06:28:18;;;;;;;15.30;7.17;;;;;;;;;;5061232;28;20639;-63
2022/01/06 06:30:46;;;;;;;16.67;7.20;;;;;;;;;;5074195;28;20223;-64
2022/01/06 06:33:13;;;;;;;41.50;23.73;;;;;;;;;;5072932;28;20218;-63
2022/01/06 06:35:41;;;;;;;35.93;13.53;;;;;;;;;;5070359;28;20211;-63
2022/01/06 06:38:08;;;;;;;15.60;7.93;;;;;;;;;;5071649;28;20265;-63
2022/01/06 06:40:35;;;;;;;26.80;11.53;;;;;;;;;;5069176;28;20681;-64
2022/01/06 06:43:03;;;;;;;19.20;7.87;;;;;;;;;;5070811;28;20564;-63
2022/01/06 06:45:30;;;;;;;15.80;7.13;;;;;;;;;;5068139;28;20215;-63
2022/01/06 06:47:57;;;;;;;17.10;7.43;;;;;;;;;;5064761;28;20234;-64
2022/01/06 06:50:26;;;;;;;18.80;9.73;;;;;;;;;;5072728;28;20318;-63
2022/01/06 06:52:53;;;;;;;54.37;15.90;;;;;;;;;;5073804;28;20214;-64
2022/01/06 06:55:21;;;;;;;56.97;19.67;;;;;;;;;;5066418;28;20319;-63
2022/01/06 06:57:48;;;;;;;32.73;14.67;;;;;;;;;;5062072;28;20235;-66
2022/01/06 07:00:16;;;;;;;10.57;6.60;;;;;;;;;;5064939;28;20240;-64
2022/01/06 07:02:45;;;;;;;12.03;7.53;;;;;;;;;;5064718;28;20314;-63
2022/01/06 07:05:15;;;;;;;15.67;8.43;;;;;;;;;;5063211;28;20300;-62
2022/01/06 07:07:44;;;;;;;37.57;12.87;;;;;;;;;;5066448;28;20582;-63
2022/01/06 07:10:14;;;;;;;73.53;33.20;;;;;;;;;;5047115;28;20235;-64
2022/01/06 07:12:46;;;;;;;60.20;19.77;;;;;;;;;;5052855;28;20220;-64
2022/01/06 07:15:14;;;;;;;28.10;14.53;;;;;;;;;;5052857;28;20734;-61
2022/01/06 07:17:41;;;;;;;28.30;12.47;;;;;;;;;;5052508;28;20231;-63
2022/01/06 07:20:10;;;;;;;23.07;10.60;;;;;;;;;;5052785;28;20239;-61
2022/01/06 07:22:37;;;;;;;19.10;9.30;;;;;;;;;;5053032;28;20236;-63
2022/01/06 07:25:06;;;;;;;31.83;10.40;;;;;;;;;;5052377;28;20239;-64
2022/01/06 07:27:33;;;;;;;31.10;10.40;;;;;;;;;;5052543;28;20255;-62
2022/01/06 07:30:00;;;;;;;46.57;14.07;;;;;;;;;;5034970;28;20682;-63
2022/01/06 07:32:28;;;;;;;17.77;8.17;;;;;;;;;;5052378;28;20236;-63
2022/01/06 07:34:56;;;;;;;94.80;46.27;;;;;;;;;;5052629;28;20243;-62
2022/01/06 07:37:24;;;;;;;40.00;16.97;;;;;;;;;;5052168;28;20227;-62
2022/01/06 07:39:51;;;;;;;18.60;7.90;;;;;;;;;;5052229;28;20719;-64
2022/01/06 07:42:19;;;;;;;64.23;20.43;;;;;;;;;;5071968;28;20910;-63
2022/01/06 07:44:49;;;;;;;48.17;18.00;;;;;;;;;;5073194;28;20307;-64
2022/01/06 07:47:18;;;;;;;53.20;17.73;;;;;;;;;;5072490;28;21386;-63
2022/01/06 07:49:46;;;;;;;46.17;18.13;;;;;;;;;;5073146;28;20231;-66
2022/01/06 07:52:13;;;;;;;19.80;9.03;;;;;;;;;;5072225;28;20687;-63
2022/01/06 07:54:42;;;;;;;32.77;13.23;;;;;;;;;;5068703;28;20239;-65
2022/01/06 07:57:10;;;;;;;39.10;20.13;;;;;;;;;;5069765;28;20250;-64
2022/01/06 07:59:37;;;;;;;33.00;13.60;;;;;;;;;;5070316;28;20266;-63
2022/01/06 08:02:07;;;;;;;31.37;15.33;;;;;;;;;;5064488;28;20231;-64
2022/01/06 08:04:38;;;;;;;29.90;13.37;;;;;;;;;;5063419;28;20296;-64
2022/01/06 08:07:09;;;;;;;35.43;16.10;;;;;;;;;;5061913;28;20245;-63
2022/01/06 08:09:43;;;;;;;20.97;10.77;;;;;;;;;;5062003;28;20238;-63
2022/01/06 08:12:10;;;;;;;14.83;8.10;;;;;;;;;;5059486;28;20297;-62
2022/01/06 08:14:37;;;;;;;47.13;16.53;;;;;;;;;;5071375;28;20235;-63
2022/01/06 08:17:06;;;;;;;29.97;19.50;;;;;;;;;;5071572;28;20622;-63
2022/01/06 08:19:34;;;;;;;20.27;10.80;;;;;;;;;;5068464;28;20747;-63
2022/01/06 08:22:05;;;;;;;9.90;6.33;;;;;;;;;;5049313;28;20250;-63
2022/01/06 08:24:35;;;;;;;9.70;5.80;;;;;;;;;;5072866;28;20235;-66
2022/01/06 08:27:08;;;;;;;8.37;5.63;;;;;;;;;;5053722;28;20246;-63
2022/01/06 08:29:41;;;;;;;9.47;5.70;;;;;;;;;;5078592;28;20234;-62
2022/01/06 08:32:22;;;;;;;23.57;10.10;;;;;;;;;;5072813;28;20238;-65
2022/01/06 08:34:51;;;;;;;33.40;13.00;;;;;;;;;;5079350;22;20297;-63
2022/01/06 08:37:18;;;;;;;21.87;11.40;;;;;;;;;;5069663;28;20276;-60
2022/01/06 08:39:46;;;;;;;14.03;7.90;;;;;;;;;;5063762;28;20259;-63
2022/01/06 08:42:13;;;;;;;10.20;6.20;;;;;;;;;;5069932;28;20258;-62
2022/01/06 08:44:42;;;;;;;11.93;6.83;;;;;;;;;;5074490;28;20259;-63
2022/01/06 08:47:09;;;;;;;11.63;6.33;;;;;;;;;;5068070;28;20728;-64
2022/01/06 08:49:37;;;;;;;14.67;7.43;;;;;;;;;;5088160;28;20843;-63
2022/01/06 08:52:06;;;;;;;15.20;7.00;;;;;;;;;;5074404;28;20242;-62
2022/01/06 08:54:33;;;;;;;11.97;7.27;;;;;;;;;;5074490;28;20284;-61
2022/01/06 08:57:01;;;;;;;13.13;7.33;;;;;;;;;;5073185;28;20310;-62
2022/01/06 08:59:28;;;;;;;11.53;7.10;;;;;;;;;;5065679;28;20235;-62
2022/01/06 09:01:55;;;;;;;14.40;7.47;;;;;;;;;;5075030;28;20724;-61
2022/01/06 09:04:23;;;;;;;59.67;17.57;;;;;;;;;;5066916;28;20240;-61
2022/01/06 09:06:51;;;;;;;34.37;14.13;;;;;;;;;;5068024;28;20239;-62
2022/01/06 09:09:20;;;;;;;16.67;8.73;;;;;;;;;;5066277;28;20239;-62
2022/01/06 09:11:47;;;;;;;28.07;11.83;;;;;;;;;;5072067;28;20257;-62
2022/01/06 09:14:15;;;;;;;18.40;8.80;;;;;;;;;;5074240;28;20223;-63
2022/01/06 09:16:43;;;;;;;16.30;7.70;;;;;;;;;;5072513;28;20242;-62
2022/01/06 09:19:10;;;;;;;27.97;14.67;;;;;;;;;;5066992;28;20598;-62
2022/01/06 09:21:38;;;;;;;18.13;9.60;;;;;;;;;;5069944;28;20232;-62
2022/01/06 09:24:13;;;;;;;20.70;8.60;;;;;;;;;;5151990;22;20230;31
2022/01/06 09:26:41;;;;;;;13.33;7.70;;;;;;;;;;5048992;28;20321;-62
2022/01/06 09:29:08;;;;;;;17.10;8.90;;;;;;;;;;5049963;28;20274;-62
2022/01/06 09:31:36;;;;;;;16.70;8.37;;;;;;;;;;5049583;28;20315;-63
2022/01/06 09:34:09;;;;;;;9.70;6.13;;;;;;;;;;5054323;28;20231;-63
2022/01/06 09:36:38;;;;;;;10.73;5.63;;;;;;;;;;5054855;28;20239;-63
2022/01/06 09:39:08;;;;;;;25.57;11.53;;;;;;;;;;5052321;28;20267;-64
2022/01/06 09:41:36;;;;;;;14.67;8.50;;;;;;;;;;5052006;28;20234;-62
2022/01/06 09:44:04;;;;;;;13.93;7.27;;;;;;;;;;5054805;28;20232;-63
2022/01/06 09:46:55;;;;;;;10.53;5.83;;;;;;;;;;5049277;28;20228;-63
2022/01/06 09:49:22;;;;;;;8.80;5.77;;;;;;;;;;5047978;28;20297;-63
2022/01/06 09:51:51;;;;;;;9.13;5.57;;;;;;;;;;5050745;28;20234;-62
2022/01/06 09:54:19;;;;;;;36.13;13.13;;;;;;;;;;5053629;28;20235;-63
2022/01/06 09:56:46;;;;;;;19.20;10.00;;;;;;;;;;5052409;28;20263;-64
2022/01/06 09:59:13;;;;;;;12.93;6.83;;;;;;;;;;5055046;28;20737;-66
2022/01/06 10:01:41;;;;;;;13.40;7.13;;;;;;;;;;5054965;28;20235;-63
2022/01/06 10:04:19;;;;;;;11.50;5.50;;;;;;;;;;5036864;28;20233;-62
2022/01/06 10:07:06;;;;;;;10.70;4.57;;;;;;;;;;5053829;28;20203;-63
2022/01/06 10:09:35;;;;;;;7.43;4.33;;;;;;;;;;5048414;28;20315;-62
2022/01/06 10:12:10;;;;;;;30.60;11.87;;;;;;;;;;5054216;28;20231;-63
2022/01/06 10:14:44;;;;;;;22.70;10.27;;;;;;;;;;5043960;28;20227;-63
2022/01/06 10:17:14;;;;;;;22.00;9.57;;;;;;;;;;5054328;28;20232;-66
2022/01/06 10:19:44;;;;;;;17.77;8.87;;;;;;;;;;5053985;28;20297;-68
2022/01/06 10:22:17;;;;;;;17.67;10.33;;;;;;;;;;5052720;28;20322;-65
2022/01/06 10:24:46;;;;;;;14.40;7.80;;;;;;;;;;5054244;28;20244;-64
2022/01/06 10:27:16;;;;;;;9.03;5.50;;;;;;;;;;5054151;28;20588;-64
2022/01/06 10:29:45;;;;;;;21.43;7.63;;;;;;;;;;5054040;28;20698;-66
2022/01/06 10:32:21;;;;;;;13.43;7.20;;;;;;;;;;5054346;28;20232;-64
2022/01/06 10:34:50;;;;;;;19.37;8.40;;;;;;;;;;5051505;28;20635;-64
2022/01/06 10:37:27;;;;;;;15.77;8.80;;;;;;;;;;5051801;28;20258;-66
2022/01/06 10:40:00;;;;;;;7.10;4.13;;;;;;;;;;5053483;28;20227;-65
2022/01/06 10:42:31;;;;;;;6.77;5.30;;;;;;;;;;5044589;28;20758;-65
2022/01/06 10:45:06;;;;;;;32.83;11.90;;;;;;;;;;5049477;28;20228;-64
2022/01/06 10:47:39;;;;;;;18.93;8.80;;;;;;;;;;5044768;28;20264;-64
2022/01/06 10:50:19;;;;;;;23.77;10.27;;;;;;;;;;5043789;28;20228;-65
2022/01/06 10:52:55;;;;;;;12.70;6.67;;;;;;;;;;5045211;28;20310;-65
2022/01/06 10:55:30;;;;;;;9.90;5.30;;;;;;;;;;5044333;28;20236;-63
2022/01/06 11:01:53;;;;;;;27.73;10.10;;;;;;;;;;4963572;28;20242;-65
2022/01/06 11:04:20;;;;;;;6.80;4.90;;;;;;;;;;4973668;28;20245;-66
2022/01/06 11:06:49;;;;;;;17.27;7.73;;;;;;;;;;4972978;28;21565;-66
2022/01/06 11:09:17;;;;;;;7.70;4.57;;;;;;;;;;4971881;28;20246;-67
2022/01/06 11:14:15;;;;;;;6.03;3.80;;;;;;;;;;4972818;28;20239;-66
2022/01/06 11:16:43;;;;;;;4.93;3.50;;;;;;;;;;4974598;28;20622;-66
2022/01/06 11:19:12;;;;;;;26.63;11.50;;;;;;;;;;4974661;28;20238;-65
2022/01/06 11:21:42;;;;;;;16.90;7.90;;;;;;;;;;4974246;28;20234;-66
2022/01/06 11:24:20;;;;;;;9.07;8.13;;;;;;;;;;4974697;28;20238;-63
2022/01/06 11:26:58;;;;;;;11.23;6.83;;;;;;;;;;4974421;28;20234;-63
2022/01/06 11:29:43;;;;;;;9.33;5.00;;;;;;;;;;4973392;28;20258;-62
2022/01/06 11:32:23;;;;;;;6.77;4.23;;;;;;;;;;4972596;28;20268;-64
2022/01/06 11:35:11;;;;;;;11.30;6.00;;;;;;;;;;4974205;28;20312;-63
2022/01/06 11:37:42;;;;;;;22.80;9.90;;;;;;;;;;4973641;28;20272;-63
2022/01/06 11:40:11;;;;;;;17.60;9.60;;;;;;;;;;4974065;28;20234;-64
2022/01/06 11:42:38;;;;;;;20.07;10.17;;;;;;;;;;4974592;28;20257;-66
2022/01/06 11:45:18;;;;;;;12.13;7.00;;;;;;;;;;4962612;28;20231;-66
2022/01/06 11:47:45;;;;;;;12.80;6.90;;;;;;;;;;4974365;28;20323;-64
2022/01/06 11:50:16;;;;;;;10.87;5.77;;;;;;;;;;4993116;28;20234;-64
2022/01/06 11:52:55;;;;;;;42.80;15.17;;;;;;;;;;4977058;28;20230;-64
2022/01/06 11:55:28;;;;;;;37.47;13.10;;;;;;;;;;4993356;28;20269;-64
2022/01/06 11:57:55;;;;;;;28.20;11.77;;;;;;;;;;4976653;28;20256;-65
2022/01/06 12:00:25;;;;;;;51.97;16.33;;;;;;;;;;4985756;28;20572;-67
2022/01/06 12:02:56;;;;;;;29.67;11.10;;;;;;;;;;4980690;28;20234;-68
2022/01/06 12:05:24;;;;;;;53.07;26.57;;;;;;;;;;4994053;28;20264;-66
2022/01/06 12:07:52;;;;;;;19.93;11.13;;;;;;;;;;5015553;28;20283;-66
2022/01/06 12:10:20;;;;;;;20.77;10.43;;;;;;;;;;5016405;28;20225;-66
2022/01/06 12:12:50;;;;;;;17.47;7.70;;;;;;;;;;5015927;28;20229;-65
2022/01/06 12:15:19;;;;;;;20.33;8.67;;;;;;;;;;5016469;28;20241;-66
2022/01/06 12:17:54;;;;;;;33.57;19.80;;;;;;;;;;5016480;28;20275;-63
2022/01/06 12:20:24;;;;;;;18.07;8.63;;;;;;;;;;5016454;28;20240;-63
2022/01/06 12:22:52;;;;;;;13.63;7.03;;;;;;;;;;5015966;28;20229;-61
2022/01/06 12:25:23;;;;;;;16.67;7.30;;;;;;;;;;5016274;28;20261;-61
2022/01/06 12:27:54;;;;;;;10.57;6.17;;;;;;;;;;5015836;28;20233;-62
2022/01/06 12:30:26;;;;;;;17.37;7.30;;;;;;;;;;4999090;28;20279;-63
2022/01/06 12:33:06;;;;;;;8.53;4.30;;;;;;;;;;5016627;28;20240;-61
2022/01/06 12:35:42;;;;;;;12.53;4.37;;;;;;;;;;5015483;28;20262;-65
2022/01/06 12:38:12;;;;;;;12.70;5.70;;;;;;;;;;5012708;28;20272;-64
2022/01/06 12:40:45;;;;;;;6.13;3.80;;;;;;;;;;4992103;28;20313;-65
2022/01/06 12:43:34;;;;;;;11.67;4.57;;;;;;;;;;4994393;28;20236;-65
2022/01/06 12:46:04;;;;;;;8.97;3.63;;;;;;;;;;5013136;28;20288;-67
2022/01/06 12:48:40;;;;;;;9.77;3.03;;;;;;;;;;4995027;28;20272;-65
2022/01/06 12:51:11;;;;;;;13.20;5.90;;;;;;;;;;4993371;28;20241;-63
2022/01/06 12:53:40;;;;;;;10.27;3.80;;;;;;;;;;5014426;28;20259;-62
2022/01/06 12:56:09;;;;;;;12.17;4.63;;;;;;;;;;5010796;28;20675;-61
2022/01/06 12:58:37;;;;;;;15.67;6.27;;;;;;;;;;4996669;28;20237;-67
2022/01/06 13:01:09;;;;;;;12.57;4.93;;;;;;;;;;5007068;28;20256;-63
2022/01/06 13:03:40;;;;;;;16.40;6.20;;;;;;;;;;4993861;28;20915;-67
2022/01/06 13:06:10;;;;;;;11.87;5.13;;;;;;;;;;5003514;28;20625;-63
2022/01/06 13:08:43;;;;;;;8.57;5.07;;;;;;;;;;5006417;28;20268;-65
2022/01/06 13:11:11;;;;;;;13.90;7.87;;;;;;;;;;5005389;28;20251;-66
2022/01/06 13:13:58;;;;;;;6.53;4.43;;;;;;;;;;5008146;28;20237;-66
2022/01/06 13:16:31;;;;;;;9.03;5.50;;;;;;;;;;4996302;28;20226;-65
2022/01/06 13:19:01;;;;;;;9.70;5.73;;;;;;;;;;4996544;28;20233;-62
2022/01/06 13:21:37;;;;;;;9.10;5.70;;;;;;;;;;4999704;28;20237;-66
2022/01/06 13:24:13;;;;;;;7.23;4.73;;;;;;;;;;4995925;28;20245;-68
2022/01/06 13:26:51;;;;;;;6.67;4.07;;;;;;;;;;4995511;28;20237;-66
2022/01/06 13:29:34;;;;;;;14.90;6.80;;;;;;;;;;4996011;28;20335;-66
2022/01/06 13:32:07;;;;;;;9.63;5.83;;;;;;;;;;5006686;28;20240;-67
2022/01/06 13:34:41;;;;;;;20.13;11.10;;;;;;;;;;5001071;28;20230;-63
2022/01/06 13:37:16;;;;;;;23.87;10.83;;;;;;;;;;4993236;28;20674;-65
2022/01/06 13:39:51;;;;;;;16.33;8.20;;;;;;;;;;4995173;28;20248;-65
2022/01/06 13:42:31;;;;;;;21.80;9.60;;;;;;;;;;4981484;28;20236;-62
2022/01/06 13:45:12;;;;;;;14.63;8.07;;;;;;;;;;5001465;28;20742;-61
2022/01/06 13:47:48;;;;;;;13.43;7.03;;;;;;;;;;4994801;28;20316;-63
2022/01/06 13:53:27;;;;;;;16.67;9.70;;;;;;;;;;5006662;28;20255;-62
2022/01/06 13:56:02;;;;;;;30.67;14.03;;;;;;;;;;4999110;28;20237;-65
2022/01/06 13:58:29;;;;;;;20.20;10.23;;;;;;;;;;5002924;28;20237;-64
2022/01/06 14:00:57;;;;;;;19.17;9.80;;;;;;;;;;5008786;28;20260;-65
2022/01/06 14:03:31;;;;;;;16.20;8.70;;;;;;;;;;4997382;28;20241;-64
2022/01/06 14:06:04;;;;;;;30.63;13.17;;;;;;;;;;5013799;28;20253;-65
2022/01/06 14:08:32;;;;;;;14.87;8.20;;;;;;;;;;4994547;28;20229;-63
2022/01/06 14:10:59;;;;;;;17.30;10.03;;;;;;;;;;5004600;28;20237;-64
2022/01/06 14:13:27;;;;;;;23.70;13.17;;;;;;;;;;5013993;28;20595;-63
2022/01/06 14:15:54;;;;;;;16.53;8.30;;;;;;;;;;4996191;28;20245;-65
2022/01/06 14:18:21;;;;;;;17.37;10.00;;;;;;;;;;4993435;28;20261;-64
2022/01/06 14:20:49;;;;;;;21.43;11.23;;;;;;;;;;4994643;28;20234;-68
2022/01/06 14:23:17;;;;;;;11.33;7.17;;;;;;;;;;5014265;28;20232;-65
2022/01/06 14:25:45;;;;;;;28.90;12.80;;;;;;;;;;5014105;28;20295;-61
2022/01/06 14:28:13;;;;;;;19.33;9.73;;;;;;;;;;4997155;28;20240;-64
2022/01/06 14:30:40;;;;;;;26.97;12.77;;;;;;;;;;5014237;28;20251;-62
2022/01/06 14:33:08;;;;;;;26.83;12.63;;;;;;;;;;5014172;28;20587;-65
2022/01/06 14:35:35;;;;;;;26.30;15.03;;;;;;;;;;4984143;28;20300;-64
2022/01/06 14:38:03;;;;;;;29.63;13.13;;;;;;;;;;4980796;28;20300;-62
2022/01/06 14:40:31;;;;;;;18.13;10.57;;;;;;;;;;5014362;28;20241;-63
2022/01/06 14:43:09;;;;;;;19.47;9.57;;;;;;;;;;4993096;28;20234;-62
2022/01/06 14:45:37;;;;;;;17.63;9.97;;;;;;;;;;4990939;28;20244;-67
2022/01/06 14:48:04;;;;;;;14.07;8.07;;;;;;;;;;5007197;28;20269;-68
2022/01/06 14:50:31;;;;;;;36.73;15.53;;;;;;;;;;4999737;28;20352;-64
2022/01/06 14:52:58;;;;;;;24.37;10.97;;;;;;;;;;5013942;28;20229;-68
2022/01/06 14:55:26;;;;;;;31.47;14.00;;;;;;;;;;4996768;28;20328;-66
2022/01/06 14:57:53;;;;;;;14.83;10.00;;;;;;;;;;5014012;28;20766;-67
2022/01/06 15:00:21;;;;;;;16.63;9.60;;;;;;;;;;5013217;28;20259;-67